createdAt,value
2022-11-16T00:00:11.242Z,9.30
2022-11-16T00:02:40.905Z,9.63
2022-11-16T00:05:10.582Z,8.53
2022-11-16T00:07:38.995Z,7.83
2022-11-16T00:10:08.379Z,7.20
2022-11-16T00:12:36.767Z,7.63
2022-11-16T00:15:05.413Z,6.30
2022-11-16T00:17:33.665Z,6.43
2022-11-16T00:20:03.232Z,6.37
2022-11-16T00:22:31.818Z,6.60
2022-11-16T00:25:00.265Z,6.30
2022-11-16T00:27:28.486Z,6.80
2022-11-16T00:29:56.851Z,6.40
2022-11-16T00:32:26.155Z,6.73
2022-11-16T00:34:54.539Z,5.87
2022-11-16T00:37:24.057Z,6.10
2022-11-16T00:39:52.472Z,5.57
2022-11-16T00:42:20.983Z,5.50
2022-11-16T00:44:49.123Z,5.50
2022-11-16T00:47:17.452Z,5.40
2022-11-16T00:49:45.864Z,5.47
2022-11-16T00:52:14.436Z,4.63
2022-11-16T00:54:44.009Z,4.77
2022-11-16T00:57:12.222Z,5.33
2022-11-16T00:59:40.602Z,4.50
2022-11-16T01:02:09.053Z,4.77
2022-11-16T01:04:37.706Z,4.53
2022-11-16T01:07:06.174Z,4.10
2022-11-16T01:09:34.534Z,3.77
2022-11-16T01:12:09.838Z,4.07
2022-11-16T01:14:39.189Z,4.10
2022-11-16T01:17:07.758Z,4.20
2022-11-16T01:19:36.470Z,4.03
2022-11-16T01:22:05.337Z,4.07
2022-11-16T01:24:33.801Z,3.50
2022-11-16T01:27:03.453Z,3.90
2022-11-16T01:29:32.341Z,3.70
2022-11-16T01:32:00.687Z,3.70
2022-11-16T01:34:28.982Z,3.77
2022-11-16T01:36:57.207Z,3.70
2022-11-16T01:39:25.670Z,3.90
2022-11-16T01:41:54.208Z,3.77
2022-11-16T01:44:59.695Z,4.00
2022-11-16T01:47:28.384Z,3.73
2022-11-16T01:50:03.391Z,3.47
2022-11-16T01:52:35.114Z,3.43
2022-11-16T01:55:04.639Z,2.97
2022-11-16T01:57:36.302Z,3.43
2022-11-16T02:00:08.790Z,2.80
2022-11-16T02:02:37.378Z,2.63
2022-11-16T02:05:06.766Z,2.33
2022-11-16T02:08:09.510Z,2.63
2022-11-16T02:10:51.215Z,2.17
2022-11-16T02:13:35.358Z,2.23
2022-11-16T02:16:13.323Z,2.60
2022-11-16T02:18:49.787Z,2.60
2022-11-16T02:21:28.405Z,1.90
2022-11-16T02:24:47.417Z,2.90
2022-11-16T02:27:38.949Z,2.33
2022-11-16T02:30:08.984Z,2.00
2022-11-16T02:32:41.037Z,2.60
2022-11-16T02:35:14.195Z,2.70
2022-11-16T02:37:48.228Z,1.77
2022-11-16T02:40:18.387Z,2.27
2022-11-16T02:42:52.072Z,2.50
2022-11-16T02:45:23.701Z,2.23
2022-11-16T02:47:54.501Z,2.27
2022-11-16T02:50:24.653Z,2.20
2022-11-16T02:52:53.011Z,3.40
2022-11-16T02:55:21.478Z,1.87
2022-11-16T02:57:56.993Z,2.50
2022-11-16T03:00:29.618Z,2.40
2022-11-16T03:03:20.141Z,2.70
2022-11-16T03:05:52.212Z,2.00
2022-11-16T03:08:26.556Z,2.20
2022-11-16T03:11:16.878Z,2.60
2022-11-16T03:13:46.443Z,2.07
2022-11-16T03:16:21.802Z,2.50
2022-11-16T03:18:52.323Z,2.33
2022-11-16T03:21:25.857Z,2.60
2022-11-16T03:23:54.198Z,2.33
2022-11-16T03:26:27.618Z,2.50
2022-11-16T03:29:01.385Z,2.57
2022-11-16T03:31:35.837Z,2.50
2022-11-16T03:34:09.093Z,2.60
2022-11-16T03:36:40.441Z,2.60
2022-11-16T03:39:13.536Z,2.83
2022-11-16T03:41:43.300Z,2.70
2022-11-16T03:44:14.705Z,2.73
2022-11-16T03:46:45.496Z,2.83
2022-11-16T03:49:13.979Z,3.00
2022-11-16T03:51:42.792Z,2.80
2022-11-16T03:54:11.233Z,3.77
2022-11-16T03:56:39.552Z,2.90
2022-11-16T03:59:07.909Z,3.10
2022-11-16T04:01:39.282Z,3.27
2022-11-16T04:04:32.973Z,3.43
2022-11-16T04:07:15.365Z,3.40
2022-11-16T04:10:01.267Z,3.40
2022-11-16T04:12:47.235Z,4.23
2022-11-16T04:15:32.957Z,3.50
2022-11-16T04:18:18.590Z,3.77
2022-11-16T04:21:05.985Z,4.07
2022-11-16T04:23:51.935Z,3.60
2022-11-16T04:26:40.847Z,3.73
2022-11-16T04:29:08.596Z,3.27
2022-11-16T04:31:54.214Z,3.53
2022-11-16T04:34:40.375Z,4.20
2022-11-16T04:37:28.423Z,4.00
2022-11-16T04:39:56.707Z,4.10
2022-11-16T04:42:24.214Z,3.70
2022-11-16T04:45:06.566Z,4.10
2022-11-16T04:47:35.152Z,4.27
2022-11-16T04:50:03.463Z,3.70
2022-11-16T04:52:33.002Z,3.70
2022-11-16T04:55:01.225Z,4.10
2022-11-16T04:57:29.555Z,4.27
2022-11-16T04:59:57.970Z,3.80
2022-11-16T05:02:26.392Z,3.93
2022-11-16T05:04:54.772Z,4.10
2022-11-16T05:07:23.249Z,3.83
2022-11-16T05:09:52.992Z,3.97
2022-11-16T05:12:23.009Z,3.43
2022-11-16T05:14:51.439Z,3.27
2022-11-16T05:17:20.430Z,4.07
2022-11-16T05:20:06.446Z,3.93
2022-11-16T05:22:34.796Z,3.50
2022-11-16T05:25:04.525Z,4.67
2022-11-16T05:27:33.083Z,3.57
2022-11-16T05:30:01.490Z,4.13
2022-11-16T05:32:30.049Z,4.50
2022-11-16T05:34:58.611Z,4.10
2022-11-16T05:37:27.217Z,4.67
2022-11-16T05:39:56.979Z,4.73
2022-11-16T05:42:26.876Z,4.20
2022-11-16T05:44:55.132Z,4.03
2022-11-16T05:47:23.512Z,4.03
2022-11-16T05:49:51.970Z,4.03
2022-11-16T05:52:20.686Z,4.30
2022-11-16T05:54:48.914Z,3.63
2022-11-16T05:57:17.528Z,4.20
2022-11-16T05:59:47.257Z,5.03
2022-11-16T06:02:15.637Z,4.33
2022-11-16T06:04:43.794Z,3.60
2022-11-16T06:07:12.284Z,4.07
2022-11-16T06:09:40.803Z,4.27
2022-11-16T06:12:09.303Z,3.90
2022-11-16T06:14:37.592Z,3.50
2022-11-16T06:17:07.186Z,3.70
2022-11-16T06:19:36.851Z,3.10
2022-11-16T06:22:05.074Z,3.47
2022-11-16T06:24:33.802Z,3.13
2022-11-16T06:27:01.992Z,3.33
2022-11-16T06:29:30.439Z,3.00
2022-11-16T06:31:58.834Z,2.80
2022-11-16T06:34:29.451Z,2.80
2022-11-16T06:36:57.879Z,3.10
2022-11-16T06:39:26.159Z,3.50
2022-11-16T06:41:54.726Z,3.13
2022-11-16T06:44:22.959Z,3.63
2022-11-16T06:46:51.401Z,2.90
2022-11-16T06:49:19.790Z,3.53
2022-11-16T06:51:49.425Z,3.70
2022-11-16T06:54:17.862Z,4.10
2022-11-16T06:56:46.297Z,3.83
2022-11-16T06:59:14.640Z,3.17
2022-11-16T07:01:43.197Z,3.87
2022-11-16T07:04:12.057Z,4.20
2022-11-16T07:06:40.864Z,4.20
2022-11-16T07:09:11.224Z,4.50
2022-11-16T07:11:39.630Z,4.03
2022-11-16T07:14:08.215Z,4.00
2022-11-16T07:16:36.928Z,3.77
2022-11-16T07:19:06.117Z,4.30
2022-11-16T07:21:34.424Z,4.13
2022-11-16T07:24:02.840Z,4.23
2022-11-16T07:26:33.705Z,3.57
2022-11-16T07:29:02.581Z,3.97
2022-11-16T07:31:30.699Z,3.00
2022-11-16T07:33:59.073Z,4.77
2022-11-16T07:36:27.369Z,3.07
2022-11-16T07:38:55.734Z,3.10
2022-11-16T07:41:24.209Z,2.87
2022-11-16T07:43:54.615Z,2.67
2022-11-16T07:49:15.094Z,3.37
2022-11-16T07:51:43.586Z,3.40
2022-11-16T07:54:13.296Z,2.63
2022-11-16T07:56:41.847Z,2.47
2022-11-16T07:59:11.629Z,2.43
2022-11-16T08:01:40.119Z,2.90
2022-11-16T08:04:08.433Z,2.83
2022-11-16T08:06:36.748Z,3.67
2022-11-16T08:09:04.972Z,2.93
2022-11-16T08:11:33.179Z,3.10
2022-11-16T08:14:01.535Z,3.03
2022-11-16T08:16:33.401Z,2.83
2022-11-16T08:19:02.420Z,2.70
2022-11-16T08:21:30.782Z,2.50
2022-11-16T08:23:59.315Z,2.87
2022-11-16T08:26:27.922Z,3.17
2022-11-16T08:28:57.252Z,3.30
2022-11-16T08:31:27.698Z,2.67
2022-11-16T08:33:57.711Z,3.00
2022-11-16T08:36:26.203Z,2.90
2022-11-16T08:38:54.778Z,3.37
2022-11-16T08:41:23.432Z,2.50
2022-11-16T08:43:53.441Z,2.17
2022-11-16T08:46:22.523Z,2.40
2022-11-16T08:48:50.778Z,2.43
2022-11-16T08:51:20.971Z,3.17
2022-11-16T08:53:49.861Z,2.40
2022-11-16T08:56:19.222Z,2.53
2022-11-16T08:58:51.379Z,2.17
2022-11-16T09:01:24.211Z,1.35
2022-11-16T09:03:54.078Z,2.60
2022-11-16T09:06:24.692Z,2.40
2022-11-16T09:08:53.392Z,2.67
2022-11-16T09:11:24.014Z,3.05
2022-11-16T09:13:54.561Z,2.38
2022-11-16T09:16:22.812Z,2.08
2022-11-16T09:18:52.556Z,2.13
2022-11-16T09:21:21.595Z,2.03
2022-11-16T09:23:51.765Z,2.17
2022-11-16T09:26:23.065Z,3.17
2022-11-16T09:28:56.948Z,2.42
2022-11-16T09:31:27.310Z,2.50
2022-11-16T09:33:58.230Z,2.70
2022-11-16T09:36:27.100Z,2.83
2022-11-16T09:42:08.346Z,2.20
2022-11-16T09:44:51.046Z,2.38
2022-11-16T09:47:21.788Z,2.15
2022-11-16T09:49:58.089Z,3.30
2022-11-16T09:52:34.426Z,2.97
2022-11-16T09:55:21.201Z,2.65
2022-11-16T09:57:51.060Z,2.65
2022-11-16T10:00:22.819Z,2.40
2022-11-16T10:03:00.365Z,2.50
2022-11-16T10:05:33.788Z,2.65
2022-11-16T10:08:11.278Z,2.88
2022-11-16T10:10:47.385Z,2.13
2022-11-16T10:13:27.915Z,2.50
2022-11-16T10:16:03.921Z,2.83
2022-11-16T10:18:44.481Z,2.10
2022-11-16T10:21:33.072Z,2.47
2022-11-16T10:24:31.722Z,2.92
2022-11-16T10:27:10.772Z,2.40
2022-11-16T10:29:49.701Z,3.25
2022-11-16T10:32:28.308Z,2.38
2022-11-16T10:35:00.234Z,2.78
2022-11-16T10:37:32.207Z,2.58
2022-11-16T10:40:00.634Z,2.95
2022-11-16T10:42:35.296Z,2.22
2022-11-16T10:45:14.326Z,2.15
2022-11-16T10:47:47.308Z,2.92
2022-11-16T10:50:36.007Z,2.70
2022-11-16T10:53:04.689Z,2.85
2022-11-16T10:55:33.105Z,3.10
2022-11-16T10:58:04.483Z,2.72
2022-11-16T11:00:38.062Z,2.80
2022-11-16T11:03:06.908Z,3.20
2022-11-16T11:05:37.033Z,2.70
2022-11-16T11:08:08.312Z,3.20
2022-11-16T11:10:38.725Z,2.72
2022-11-16T11:13:23.597Z,3.55
2022-11-16T11:15:51.997Z,3.38
2022-11-16T11:18:27.673Z,2.60
2022-11-16T11:21:10.047Z,2.55
2022-11-16T11:23:45.046Z,3.33
2022-11-16T11:26:36.281Z,3.35
2022-11-16T11:29:18.032Z,3.88
2022-11-16T11:31:51.208Z,3.20
2022-11-16T11:34:22.846Z,3.47
2022-11-16T11:36:54.683Z,3.00
2022-11-16T11:39:36.480Z,3.65
2022-11-16T11:42:21.820Z,3.30
2022-11-16T11:44:57.332Z,2.85
2022-11-16T11:47:56.887Z,2.92
2022-11-16T11:50:27.022Z,2.85
2022-11-16T11:53:08.183Z,3.65
2022-11-16T11:55:36.598Z,2.88
2022-11-16T11:58:07.206Z,3.40
2022-11-16T12:00:44.492Z,2.85
2022-11-16T12:03:44.443Z,3.28
2022-11-16T12:06:20.435Z,2.88
2022-11-16T12:09:02.860Z,4.28
2022-11-16T12:11:39.407Z,2.88
2022-11-16T12:14:30.342Z,2.67
2022-11-16T12:17:08.121Z,2.85
2022-11-16T12:19:58.143Z,3.13
2022-11-16T12:22:48.220Z,3.25
2022-11-16T12:25:26.191Z,2.50
2022-11-16T12:28:07.783Z,2.60
2022-11-16T12:30:44.361Z,3.13
2022-11-16T12:33:25.091Z,2.70
2022-11-16T12:36:01.979Z,3.63
2022-11-16T12:38:55.873Z,3.67
2022-11-16T12:42:09.172Z,2.83
2022-11-16T12:44:57.807Z,3.30
2022-11-16T12:47:34.695Z,3.42
2022-11-16T12:50:16.606Z,2.78
2022-11-16T12:53:00.889Z,2.83
2022-11-16T12:55:40.945Z,2.67
2022-11-16T12:58:17.500Z,2.83
2022-11-16T13:00:54.634Z,3.22
2022-11-16T13:03:28.209Z,3.05
2022-11-16T13:06:02.689Z,2.80
2022-11-16T13:08:40.912Z,2.30
2022-11-16T13:11:15.948Z,3.10
2022-11-16T13:13:52.634Z,2.70
2022-11-16T13:16:22.183Z,2.72
2022-11-16T13:18:53.760Z,2.67
2022-11-16T13:21:37.009Z,2.85
2022-11-16T13:24:15.572Z,2.85
2022-11-16T13:26:51.468Z,3.42
2022-11-16T13:29:30.358Z,2.65
2022-11-16T13:32:02.804Z,2.60
2022-11-16T13:34:33.786Z,2.88
2022-11-16T13:37:23.341Z,2.45
2022-11-16T13:40:11.979Z,2.10
2022-11-16T13:42:46.298Z,2.42
2022-11-16T13:45:20.399Z,2.40
2022-11-16T13:47:51.697Z,2.20
2022-11-16T13:50:22.351Z,2.47
2022-11-16T13:55:46.681Z,2.42
2022-11-16T13:58:22.107Z,2.22
2022-11-16T14:00:58.634Z,2.13
2022-11-16T14:03:31.667Z,1.90
2022-11-16T14:06:00.315Z,2.40
2022-11-16T14:08:50.164Z,2.45
2022-11-16T14:11:35.720Z,2.25
2022-11-16T14:14:05.905Z,2.50
2022-11-16T14:16:48.773Z,2.47
2022-11-16T14:19:55.976Z,2.35
2022-11-16T14:22:47.869Z,2.70
2022-11-16T14:25:37.337Z,2.47
2022-11-16T14:28:37.681Z,2.60
2022-11-16T14:31:15.349Z,2.67
2022-11-16T14:33:44.189Z,3.05
2022-11-16T14:36:13.351Z,2.58
2022-11-16T14:38:43.264Z,4.47
2022-11-16T14:41:21.529Z,2.65
2022-11-16T14:43:53.210Z,2.60
2022-11-16T14:46:23.909Z,2.70
2022-11-16T14:48:52.176Z,2.30
2022-11-16T14:51:23.992Z,2.30
2022-11-16T14:53:55.568Z,3.00
2022-11-16T14:56:25.151Z,2.90
2022-11-16T14:58:55.083Z,2.93
2022-11-16T15:01:25.995Z,2.72
2022-11-16T15:03:58.070Z,3.55
2022-11-16T15:06:27.202Z,3.43
2022-11-16T15:08:59.413Z,3.67
2022-11-16T15:11:45.124Z,4.10
2022-11-16T15:14:19.041Z,4.00
2022-11-16T15:16:51.949Z,3.80
2022-11-16T15:19:21.637Z,4.07
2022-11-16T15:21:54.284Z,3.27
2022-11-16T15:24:31.824Z,3.20
2022-11-16T15:27:11.635Z,3.77
2022-11-16T15:29:40.366Z,3.30
2022-11-16T15:32:16.466Z,3.27
2022-11-16T15:34:47.375Z,3.10
2022-11-16T15:37:27.272Z,3.70
2022-11-16T15:39:56.869Z,3.90
2022-11-16T15:42:28.691Z,3.50
2022-11-16T15:44:57.500Z,3.97
2022-11-16T15:47:26.181Z,4.30
2022-11-16T15:49:55.296Z,4.30
2022-11-16T15:52:42.498Z,4.43
2022-11-16T15:55:27.622Z,4.10
2022-11-16T15:58:02.801Z,4.20
2022-11-16T16:00:32.516Z,4.10
2022-11-16T16:03:07.349Z,4.60
2022-11-16T16:05:39.778Z,4.73
2022-11-16T16:08:24.629Z,4.30
2022-11-16T16:11:00.057Z,4.53
2022-11-16T16:13:32.962Z,4.17
2022-11-16T16:16:23.354Z,4.20
2022-11-16T16:18:52.760Z,4.20
2022-11-16T16:21:21.316Z,4.70
2022-11-16T16:23:51.318Z,4.23
2022-11-16T16:26:20.438Z,4.67
2022-11-16T16:28:50.653Z,4.40
2022-11-16T16:31:20.624Z,4.90
2022-11-16T16:33:49.192Z,4.53
2022-11-16T16:36:17.790Z,4.70
2022-11-16T16:38:46.651Z,4.70
2022-11-16T16:41:24.537Z,4.67
2022-11-16T16:43:54.601Z,4.90
2022-11-16T16:46:23.036Z,4.90
2022-11-16T16:48:51.262Z,4.67
2022-11-16T16:51:20.085Z,4.37
2022-11-16T16:53:48.731Z,4.57
2022-11-16T16:56:19.890Z,5.57
2022-11-16T16:58:48.338Z,4.97
2022-11-16T17:01:18.238Z,5.67
2022-11-16T17:03:47.006Z,4.63
2022-11-16T17:06:15.416Z,5.13
2022-11-16T17:08:43.771Z,5.83
2022-11-16T17:11:16.009Z,5.87
2022-11-16T17:13:44.887Z,6.37
2022-11-16T17:16:13.282Z,7.30
2022-11-16T17:18:44.472Z,6.40
2022-11-16T17:21:12.930Z,6.50
2022-11-16T17:23:41.432Z,6.53
2022-11-16T17:26:10.935Z,7.07
2022-11-16T17:28:39.257Z,6.97
2022-11-16T17:31:08.975Z,7.10
2022-11-16T17:33:38.350Z,7.23
2022-11-16T17:36:09.678Z,7.47
2022-11-16T17:38:38.300Z,7.77
2022-11-16T17:41:07.972Z,7.90
2022-11-16T17:43:36.848Z,7.07
2022-11-16T17:46:09.290Z,6.87
2022-11-16T17:48:38.355Z,9.50
2022-11-16T17:51:08.122Z,7.10
2022-11-16T17:53:37.310Z,6.07
2022-11-16T17:56:06.390Z,6.27
2022-11-16T17:58:35.308Z,6.40
2022-11-16T18:01:03.822Z,5.70
2022-11-16T18:03:32.435Z,5.50
2022-11-16T18:06:05.238Z,6.37
2022-11-16T18:08:35.732Z,6.07
2022-11-16T18:11:07.664Z,6.20
2022-11-16T18:13:37.161Z,5.47
2022-11-16T18:16:06.955Z,6.23
2022-11-16T18:18:35.370Z,5.80
2022-11-16T18:21:03.770Z,6.40
2022-11-16T18:23:34.097Z,5.80
2022-11-16T18:26:08.526Z,6.00
2022-11-16T18:28:37.159Z,6.00
2022-11-16T18:31:06.088Z,6.03
2022-11-16T18:33:36.973Z,5.20
2022-11-16T18:36:06.821Z,5.93
2022-11-16T18:38:35.236Z,5.40
2022-11-16T18:41:15.121Z,5.03
2022-11-16T18:43:48.685Z,4.00
2022-11-16T18:46:17.092Z,4.40
2022-11-16T18:48:46.665Z,5.20
2022-11-16T18:51:15.906Z,3.90
2022-11-16T18:53:44.553Z,4.38
2022-11-16T18:56:14.352Z,3.87
2022-11-16T18:58:50.473Z,3.83
2022-11-16T19:01:20.992Z,3.53
2022-11-16T19:03:49.742Z,4.63
2022-11-16T19:06:18.318Z,4.82
2022-11-16T19:08:52.152Z,3.80
2022-11-16T19:11:25.354Z,3.85
2022-11-16T19:13:55.081Z,3.90
2022-11-16T19:16:24.367Z,3.78
2022-11-16T19:18:53.068Z,4.38
2022-11-16T19:21:21.927Z,4.10
2022-11-16T19:23:52.041Z,4.82
2022-11-16T19:26:22.261Z,4.80
2022-11-16T19:28:53.387Z,4.60
2022-11-16T19:31:22.844Z,4.67
2022-11-16T19:33:55.037Z,4.50
2022-11-16T19:36:24.092Z,4.47
2022-11-16T19:38:52.543Z,4.10
2022-11-16T19:41:22.436Z,4.20
2022-11-16T19:43:57.129Z,4.97
2022-11-16T19:46:26.269Z,4.22
2022-11-16T19:48:55.606Z,4.07
2022-11-16T19:51:25.676Z,3.90
2022-11-16T19:53:54.605Z,3.33
2022-11-16T19:56:24.354Z,3.90
2022-11-16T19:58:54.608Z,3.30
2022-11-16T20:01:25.375Z,3.53
2022-11-16T20:03:54.035Z,3.40
2022-11-16T20:06:23.983Z,4.40
2022-11-16T20:08:55.951Z,3.70
2022-11-16T20:11:25.585Z,3.97
2022-11-16T20:13:56.980Z,2.60
2022-11-16T20:16:27.373Z,3.47
2022-11-16T20:18:55.847Z,3.00
2022-11-16T20:21:25.726Z,3.13
2022-11-16T20:23:59.093Z,2.97
2022-11-16T20:26:31.435Z,3.10
2022-11-16T20:29:01.245Z,3.37
2022-11-16T20:31:30.774Z,3.28
2022-11-16T20:34:00.290Z,3.47
2022-11-16T20:36:30.083Z,2.83
2022-11-16T20:38:59.367Z,3.20
2022-11-16T20:41:29.201Z,2.67
2022-11-16T20:43:58.834Z,3.53
2022-11-16T20:46:30.137Z,3.47
2022-11-16T20:49:00.798Z,3.13
2022-11-16T20:51:29.966Z,2.90
2022-11-16T20:53:58.396Z,3.27
2022-11-16T20:56:27.082Z,3.10
2022-11-16T20:58:55.451Z,2.50
2022-11-16T21:01:28.514Z,3.03
2022-11-16T21:03:59.151Z,2.13
2022-11-16T21:06:27.685Z,2.40
2022-11-16T21:08:56.811Z,2.53
2022-11-16T21:11:26.702Z,1.60
2022-11-16T21:14:12.795Z,2.22
2022-11-16T21:16:41.313Z,2.30
2022-11-16T21:19:11.674Z,2.45
2022-11-16T21:21:40.896Z,2.17
2022-11-16T21:24:09.687Z,2.55
2022-11-16T21:26:38.654Z,2.60
2022-11-16T21:29:07.062Z,2.33
2022-11-16T21:31:36.839Z,1.70
2022-11-16T21:34:05.982Z,2.70
2022-11-16T21:36:36.206Z,2.57
2022-11-16T21:39:04.684Z,2.10
2022-11-16T21:41:33.925Z,1.80
2022-11-16T21:44:02.664Z,1.90
2022-11-16T21:46:31.009Z,2.47
2022-11-16T21:48:59.519Z,1.70
2022-11-16T21:51:28.283Z,1.75
2022-11-16T21:53:58.337Z,1.98
2022-11-16T21:56:27.696Z,2.20
2022-11-16T21:58:57.733Z,1.60
2022-11-16T22:01:46.333Z,1.60
2022-11-16T22:04:32.273Z,1.95
2022-11-16T22:07:17.885Z,1.80
2022-11-16T22:09:47.688Z,1.80
2022-11-16T22:12:16.362Z,1.60
2022-11-16T22:14:44.637Z,1.85
2022-11-16T22:17:12.890Z,1.67
2022-11-16T22:19:41.146Z,1.75
2022-11-16T22:22:09.382Z,1.70
2022-11-16T22:24:37.649Z,1.30
2022-11-16T22:27:07.534Z,0.80
2022-11-16T22:29:35.959Z,0.88
2022-11-16T22:32:04.401Z,1.02
2022-11-16T22:34:33.012Z,1.55
2022-11-16T22:37:01.331Z,1.40
2022-11-16T22:39:30.181Z,1.52
2022-11-16T22:41:58.575Z,1.40
2022-11-16T22:44:28.031Z,1.58
2022-11-16T22:46:56.551Z,1.40
2022-11-16T22:49:25.310Z,0.98
2022-11-16T22:51:53.608Z,1.52
2022-11-16T22:54:27.373Z,1.27
2022-11-16T22:56:56.968Z,0.88
2022-11-16T22:59:25.284Z,0.90
2022-11-16T23:01:54.890Z,1.00
2022-11-16T23:04:23.645Z,1.20
2022-11-16T23:06:52.115Z,0.65
2022-11-16T23:09:20.553Z,0.70
2022-11-16T23:12:21.008Z,0.70
2022-11-16T23:15:07.188Z,0.80
2022-11-16T23:17:36.874Z,0.70
2022-11-16T23:20:22.771Z,0.82
2022-11-16T23:23:10.980Z,0.70
2022-11-16T23:26:11.466Z,0.80
2022-11-16T23:28:40.319Z,0.70
2022-11-16T23:31:08.715Z,0.70
2022-11-16T23:33:48.054Z,0.90
2022-11-16T23:36:16.463Z,1.05
2022-11-16T23:38:44.767Z,1.17
2022-11-16T23:41:30.436Z,0.80
2022-11-16T23:43:58.824Z,1.10
2022-11-16T23:46:27.658Z,1.10
2022-11-16T23:48:57.521Z,0.88
2022-11-16T23:51:26.368Z,0.90
2022-11-16T23:53:55.799Z,0.90
2022-11-16T23:56:24.370Z,1.00
2022-11-16T23:58:56.179Z,1.10
